createdAt,value
2023-01-09T00:01:57.394Z,96308.69
2023-01-09T00:06:59.685Z,96303.84
2023-01-09T00:12:02.772Z,96311.50
2023-01-09T00:17:04.866Z,96310.31
2023-01-09T00:22:09.563Z,96307.78
2023-01-09T00:27:12.498Z,96294.81
2023-01-09T00:32:14.712Z,96297.53
2023-01-09T00:37:16.880Z,96302.03
2023-01-09T00:42:29.930Z,96303.25
2023-01-09T00:47:43.250Z,96299.00
2023-01-09T00:52:47.232Z,96308.34
2023-01-09T00:57:49.738Z,96294.22
2023-01-09T01:02:51.887Z,96301.00
2023-01-09T01:07:53.884Z,96294.81
2023-01-09T01:12:55.901Z,96284.59
2023-01-09T01:17:58.417Z,96286.69
2023-01-09T01:23:00.596Z,96290.88
2023-01-09T01:28:02.582Z,96286.06
2023-01-09T01:33:04.611Z,96288.75
2023-01-09T01:38:06.624Z,96282.75
2023-01-09T01:43:12.914Z,96283.59
2023-01-09T01:48:30.065Z,96276.97
2023-01-09T01:53:43.504Z,96280.69
2023-01-09T01:59:06.259Z,96291.84
2023-01-09T02:04:09.309Z,96292.13
2023-01-09T02:09:15.284Z,96282.97
2023-01-09T02:14:18.240Z,96277.56
2023-01-09T02:20:22.670Z,96271.97
2023-01-09T02:25:55.411Z,96269.13
2023-01-09T02:31:28.247Z,96270.38
2023-01-09T02:37:10.963Z,96275.44
2023-01-09T02:42:25.317Z,96283.88
2023-01-09T02:47:30.551Z,96277.22
2023-01-09T02:52:41.478Z,96289.53
2023-01-09T02:58:14.662Z,96284.13
2023-01-09T03:03:29.536Z,96304.00
2023-01-09T03:08:43.590Z,96322.19
2023-01-09T03:13:53.447Z,96320.84
2023-01-09T03:18:58.563Z,96310.03
2023-01-09T03:24:02.900Z,96294.88
2023-01-09T03:29:04.967Z,96309.56
2023-01-09T03:34:07.004Z,96345.31
2023-01-09T03:39:08.995Z,96354.03
2023-01-09T03:44:11.030Z,96374.66
2023-01-09T03:49:14.085Z,96392.34
2023-01-09T03:54:16.525Z,96411.22
2023-01-09T03:59:18.778Z,96427.97
2023-01-09T04:04:20.818Z,96464.66
2023-01-09T04:09:23.035Z,96488.47
2023-01-09T04:14:25.163Z,96506.31
2023-01-09T04:19:27.200Z,96519.03
2023-01-09T04:24:29.434Z,96529.72
2023-01-09T04:29:31.442Z,96529.72
2023-01-09T04:34:33.495Z,96553.56
2023-01-09T04:39:35.698Z,96552.94
2023-01-09T04:44:38.368Z,96552.63
2023-01-09T04:49:40.701Z,96548.19
2023-01-09T04:54:42.677Z,96565.59
2023-01-09T04:59:45.174Z,96560.09
2023-01-09T05:04:47.403Z,96567.56
2023-01-09T05:09:49.671Z,96549.63
2023-01-09T05:14:51.789Z,96585.47
2023-01-09T05:19:54.122Z,96604.25
2023-01-09T05:24:56.735Z,96599.84
2023-01-09T05:29:58.963Z,96614.78
2023-01-09T05:35:01.000Z,96631.28
2023-01-09T05:40:04.038Z,96641.38
2023-01-09T05:45:07.580Z,96659.97
2023-01-09T05:50:14.591Z,96676.66
2023-01-09T05:55:17.785Z,96686.13
2023-01-09T06:00:20.196Z,96696.59
2023-01-09T06:05:22.211Z,96695.75
2023-01-09T06:10:24.204Z,96701.44
2023-01-09T06:15:26.435Z,96683.94
2023-01-09T06:20:28.664Z,96692.47
2023-01-09T06:25:30.726Z,96695.13
2023-01-09T06:30:34.128Z,96699.56
2023-01-09T06:35:36.250Z,96712.47
2023-01-09T06:40:38.386Z,96713.31
2023-01-09T06:45:42.520Z,96725.13
2023-01-09T06:50:46.017Z,96740.81
2023-01-09T06:55:48.265Z,96738.97
2023-01-09T07:00:50.429Z,96744.84
2023-01-09T07:05:52.658Z,96744.00
2023-01-09T07:10:54.745Z,96735.38
2023-01-09T07:15:56.802Z,96739.13
2023-01-09T07:20:58.827Z,96740.28
2023-01-09T07:26:01.620Z,96745.78
2023-01-09T07:31:04.828Z,96755.16
2023-01-09T07:36:07.504Z,96761.19
2023-01-09T07:41:09.857Z,96750.84
2023-01-09T07:46:12.125Z,96741.56
2023-01-09T07:51:14.694Z,96744.75
2023-01-09T07:56:16.845Z,96767.31
2023-01-09T08:01:18.994Z,96761.50
2023-01-09T08:06:21.112Z,96770.59
2023-01-09T08:11:23.434Z,96774.03
2023-01-09T08:16:25.571Z,96780.50
2023-01-09T08:21:27.647Z,96785.47
2023-01-09T08:26:29.717Z,96792.22
2023-01-09T08:31:31.805Z,96800.97
2023-01-09T08:36:33.970Z,96793.56
2023-01-09T08:41:54.781Z,96801.00
2023-01-09T08:47:05.674Z,96791.53
2023-01-09T08:52:08.027Z,96786.97
2023-01-09T08:57:10.199Z,96789.00
2023-01-09T09:02:12.305Z,96797.50
2023-01-09T09:07:14.901Z,96798.75
2023-01-09T09:12:17.058Z,96797.63
2023-01-09T09:17:19.067Z,96790.81
2023-01-09T09:22:21.307Z,96793.25
2023-01-09T09:27:23.467Z,96792.22
2023-01-09T09:32:25.584Z,96789.28
2023-01-09T09:37:27.799Z,96802.06
2023-01-09T09:43:06.879Z,96807.84
2023-01-09T09:48:33.760Z,96816.75
2023-01-09T09:53:55.732Z,96830.50
2023-01-09T09:59:11.301Z,96821.13
2023-01-09T10:04:18.457Z,96816.53
2023-01-09T10:09:51.387Z,96816.13
2023-01-09T10:14:59.239Z,96802.13
2023-01-09T10:20:44.993Z,96788.97
2023-01-09T10:26:11.954Z,96782.88
2023-01-09T10:31:27.791Z,96789.47
2023-01-09T10:37:00.206Z,96785.50
2023-01-09T10:42:34.457Z,96776.97
2023-01-09T10:47:40.915Z,96779.00
2023-01-09T10:52:43.991Z,96780.19
2023-01-09T10:58:02.340Z,96768.19
2023-01-09T11:03:04.515Z,96778.38
2023-01-09T11:08:09.797Z,96767.88
2023-01-09T11:13:38.428Z,96764.31
2023-01-09T11:18:57.764Z,96767.88
2023-01-09T11:24:22.412Z,96754.28
2023-01-09T11:29:24.685Z,96750.38
2023-01-09T11:34:33.659Z,96764.19
2023-01-09T11:39:41.850Z,96752.88
2023-01-09T11:44:44.136Z,96752.63
2023-01-09T11:49:51.320Z,96738.63
2023-01-09T11:55:05.949Z,96755.13
2023-01-09T12:00:24.253Z,96741.50
2023-01-09T12:05:51.126Z,96736.19
2023-01-09T12:11:33.158Z,96724.59
2023-01-09T12:17:27.600Z,96727.97
2023-01-09T12:22:48.891Z,96749.50
2023-01-09T12:28:44.590Z,96735.03
2023-01-09T12:34:25.995Z,96750.34
2023-01-09T12:40:12.542Z,96757.09
2023-01-09T12:45:55.920Z,96766.94
2023-01-09T12:51:28.471Z,96761.22
2023-01-09T12:56:41.028Z,96776.66
2023-01-09T13:01:48.826Z,96754.34
2023-01-09T13:06:58.374Z,96773.13
2023-01-09T13:12:21.511Z,96759.28
2023-01-09T13:17:39.094Z,96768.84
2023-01-09T13:22:43.622Z,96769.72
2023-01-09T13:27:57.981Z,96784.47
2023-01-09T13:33:17.675Z,96779.22
2023-01-09T13:38:24.209Z,96783.06
2023-01-09T13:43:26.281Z,96788.38
2023-01-09T13:48:40.501Z,96789.75
2023-01-09T13:53:45.631Z,96802.25
2023-01-09T13:59:00.269Z,96800.88
2023-01-09T14:04:21.258Z,96820.69
2023-01-09T14:09:23.691Z,96840.16
2023-01-09T14:14:33.257Z,96848.09
2023-01-09T14:19:38.837Z,96835.28
2023-01-09T14:24:46.709Z,96848.00
2023-01-09T14:29:49.007Z,96855.66
2023-01-09T14:34:57.959Z,96854.47
2023-01-09T14:40:00.710Z,96865.06
2023-01-09T14:45:19.379Z,96872.59
2023-01-09T14:50:58.635Z,96883.78
2023-01-09T14:56:06.793Z,96898.59
2023-01-09T15:01:18.959Z,96909.69
2023-01-09T15:06:31.093Z,96905.13
2023-01-09T15:11:37.199Z,96922.97
2023-01-09T15:16:39.437Z,96943.81
2023-01-09T15:21:58.439Z,96949.06
2023-01-09T15:27:11.183Z,96960.03
2023-01-09T15:32:26.720Z,96957.47
2023-01-09T15:37:33.178Z,96938.34
2023-01-09T15:42:58.527Z,96952.47
2023-01-09T15:48:24.649Z,96969.13
2023-01-09T15:53:29.219Z,96996.84
2023-01-09T15:58:40.893Z,97004.50
2023-01-09T16:03:43.462Z,96992.06
2023-01-09T16:08:55.828Z,97016.78
2023-01-09T16:14:17.600Z,97036.81
2023-01-09T16:19:48.995Z,97023.13
2023-01-09T16:24:55.787Z,97030.88
2023-01-09T16:30:02.524Z,97049.47
2023-01-09T16:35:14.379Z,97047.53
2023-01-09T16:40:24.409Z,97062.69
2023-01-09T16:45:40.960Z,97068.53
2023-01-09T16:50:44.574Z,97081.06
2023-01-09T16:55:47.186Z,97093.84
2023-01-09T17:00:49.439Z,97096.25
2023-01-09T17:06:00.923Z,97093.97
2023-01-09T17:11:04.175Z,97090.94
2023-01-09T17:16:07.017Z,97098.81
2023-01-09T17:21:24.940Z,97094.22
2023-01-09T17:26:45.459Z,97094.13
2023-01-09T17:31:47.775Z,97107.59
2023-01-09T17:36:49.879Z,97097.69
2023-01-09T17:41:52.541Z,97113.88
2023-01-09T17:46:55.319Z,97114.69
2023-01-09T17:51:57.383Z,97119.03
2023-01-09T17:57:01.481Z,97128.28
2023-01-09T18:02:03.641Z,97141.38
2023-01-09T18:07:05.780Z,97146.31
2023-01-09T18:12:08.457Z,97150.00
2023-01-09T18:17:13.325Z,97171.44
2023-01-09T18:22:15.724Z,97176.53
2023-01-09T18:27:18.025Z,97197.25
2023-01-09T18:32:20.300Z,97208.97
2023-01-09T18:37:22.405Z,97221.66
2023-01-09T18:42:24.632Z,97231.81
2023-01-09T18:47:26.686Z,97245.41
2023-01-09T18:52:29.147Z,97254.31
2023-01-09T18:57:31.222Z,97256.97
2023-01-09T19:02:33.487Z,97274.03
2023-01-09T19:07:36.019Z,97281.53
2023-01-09T19:12:38.593Z,97296.38
2023-01-09T19:17:41.274Z,97299.63
2023-01-09T19:22:43.783Z,97318.16
2023-01-09T19:27:46.602Z,97326.72
2023-01-09T19:32:50.000Z,97334.00
2023-01-09T19:37:52.633Z,97345.59
2023-01-09T19:42:56.397Z,97342.25
2023-01-09T19:47:58.929Z,97339.91
2023-01-09T19:53:01.408Z,97351.53
2023-01-09T19:58:04.264Z,97357.66
2023-01-09T20:03:06.659Z,97373.50
2023-01-09T20:08:09.420Z,97382.38
2023-01-09T20:13:13.028Z,97378.59
2023-01-09T20:18:15.924Z,97384.81
2023-01-09T20:23:22.465Z,97386.91
2023-01-09T20:28:26.215Z,97399.56
2023-01-09T20:33:28.683Z,97400.69
2023-01-09T20:38:31.892Z,97415.59
2023-01-09T20:43:34.697Z,97415.03
2023-01-09T20:48:37.169Z,97428.66
2023-01-09T20:53:47.400Z,97418.22
2023-01-09T20:58:49.737Z,97429.44
2023-01-09T21:03:54.517Z,97436.88
2023-01-09T21:08:56.696Z,97440.97
2023-01-09T21:13:59.845Z,97443.56
2023-01-09T21:19:01.972Z,97442.00
2023-01-09T21:24:04.642Z,97455.88
2023-01-09T21:29:08.435Z,97455.81
2023-01-09T21:34:14.716Z,97464.38
2023-01-09T21:39:20.065Z,97471.75
2023-01-09T21:44:40.942Z,97479.44
2023-01-09T21:49:44.791Z,97487.94
2023-01-09T21:54:47.223Z,97482.38
2023-01-09T21:59:49.323Z,97501.41
2023-01-09T22:04:51.590Z,97513.13
2023-01-09T22:09:53.637Z,97513.81
2023-01-09T22:14:55.775Z,97528.88
2023-01-09T22:19:57.935Z,97537.78
2023-01-09T22:25:01.509Z,97551.69
2023-01-09T22:30:03.861Z,97561.00
2023-01-09T22:35:07.076Z,97562.56
2023-01-09T22:40:10.226Z,97573.34
2023-01-09T22:45:12.504Z,97585.69
2023-01-09T22:50:15.302Z,97589.81
2023-01-09T22:55:18.382Z,97598.78
2023-01-09T23:00:20.657Z,97610.97
2023-01-09T23:05:22.728Z,97616.34
2023-01-09T23:10:24.916Z,97638.38
2023-01-09T23:15:27.019Z,97646.41
2023-01-09T23:20:29.068Z,97644.66
2023-01-09T23:25:31.440Z,97643.19
2023-01-09T23:30:33.438Z,97643.91
2023-01-09T23:35:35.719Z,97658.59
2023-01-09T23:40:41.460Z,97667.56
2023-01-09T23:45:46.037Z,97678.88
2023-01-09T23:50:54.146Z,97681.09
2023-01-09T23:55:56.383Z,97685.09
